Freeport, IL

9:14 PM CST on December 08, 2019 (GMT -0600)
Albertus

Weather History for KFEP - October, 2019

Change the Weather History Date:

Saturday, October 12, 2019

  Actual Average Record
Temperature  
Mean Temperature 42 °F -  
Max Temperature 54 °F 62 °F 82 °F (2008)
Min Temperature 30 °F 39 °F 24 °F (1987)
Degree Days  
Heating Degree Days 24    
Moisture  
Dew Point 27 °F    
Average Humidity 61    
Maximum Humidity 88    
Minimum Humidity 34    
Precipitation  
Precipitation 0.00 in - - ()
Sea Level Pressure  
Sea Level Pressure 29.91 in    
Wind  
Wind Speed 13 mph (WSW)    
Max Wind Speed 29 mph    
Max Gust Speed 41 mph    
Visibility 10 miles    
Events      
Averages and records for this station are not official NWS values.
T = Trace of Precipitation, MM = Missing Value Source: NWS Daily Summary

Daily Weather History Graph

Daily Weather History Graph

Search for Another Location

Airport or City:

Astronomy

Oct. 12, 2019 Rise Set
Actual Time 7:07 AM CDT 6:21 PM CDT
Civil Twilight 6:39 AM CDT 6:49 PM CDT
Nautical Twilight 6:06 AM CDT 7:22 PM CDT
Astronomical Twilight 5:34 AM CDT 7:54 PM CDT
Moon 6:19 PM CDT (10/12) 5:41 AM CDT (10/12)
Length of Visible Light 12h 10m
Length of Day
11h 14m
Waxing Gibbous, 99% of the Moon is Illuminated
Oct 12
Waxing Gibbous
Oct 13
Full
Oct 21
Last Quarter
Oct 27
New
Nov 4
First Quarter

Hourly Weather History & Observations

Time (CDT) Temp. Windchill Dew Point Humidity Pressure Visibility Wind Dir Wind Speed Gust Speed Precip Events Conditions
12:15 AM 37.6 °F 29.6 °F 23.0 °F 56% 30.02 in 10.0 mi West 12.7 mph 19.6 mph N/A   Overcast
12:35 AM 37.4 °F 29.8 °F 25.2 °F 61% 30.02 in 10.0 mi West 11.5 mph 17.3 mph N/A   Overcast
12:55 AM 37.4 °F 30.3 °F 25.0 °F 61% 30.01 in 10.0 mi WSW 10.4 mph 21.9 mph N/A   Overcast
1:15 AM 37.4 °F 28.9 °F 24.3 °F 59% 30.01 in 10.0 mi WSW 13.8 mph 23.0 mph N/A   Overcast
1:35 AM 37.4 °F 29.3 °F 23.7 °F 58% 30.01 in 10.0 mi West 12.7 mph 18.4 mph N/A   Overcast
1:55 AM 37.4 °F 30.3 °F 23.7 °F 58% 30.01 in 10.0 mi West 10.4 mph 18.4 mph N/A   Overcast
2:15 AM 37.4 °F 30.8 °F 23.2 °F 57% 30.01 in 10.0 mi West 9.2 mph 24.2 mph N/A   Overcast
2:35 AM 37.4 °F 29.3 °F 23.5 °F 57% 30.00 in 10.0 mi WSW 12.7 mph 21.9 mph N/A   Overcast
2:55 AM 37.0 °F 28.9 °F 24.6 °F 61% 30.00 in 10.0 mi WSW 12.7 mph 26.5 mph N/A   Overcast
3:15 AM 35.8 °F 27.3 °F 24.4 °F 63% 29.99 in 10.0 mi WSW 12.7 mph 23.0 mph N/A   Mostly Cloudy
3:35 AM 34.7 °F 26.9 °F 24.8 °F 67% 29.99 in 10.0 mi WSW 10.4 mph - N/A   Scattered Clouds
3:55 AM 33.1 °F 25.5 °F 25.7 °F 74% 30.00 in 10.0 mi SW 9.2 mph - N/A   Clear
4:15 AM 33.3 °F 25.1 °F 25.5 °F 73% 30.00 in 10.0 mi WSW 10.4 mph 17.3 mph N/A   Clear
4:35 AM 32.9 °F 25.3 °F 25.0 °F 73% 30.00 in 10.0 mi WSW 9.2 mph 19.6 mph N/A   Clear
4:55 AM 32.5 °F 26.2 °F 24.8 °F 73% 29.99 in 10.0 mi WSW 6.9 mph - N/A   Clear
5:35 AM 31.3 °F 23.9 °F 26.2 °F 82% 29.99 in 10.0 mi SW 8.1 mph - N/A   Clear
5:55 AM 31.1 °F 23.1 °F 26.4 °F 83% 29.99 in 10.0 mi SW 9.2 mph - N/A   Clear
6:15 AM 31.6 °F 22.6 °F 26.4 °F 81% 29.99 in 10.0 mi SW 11.5 mph - N/A   Clear
6:35 AM 31.1 °F 21.9 °F 26.4 °F 83% 29.99 in 10.0 mi SW 11.5 mph - N/A   Clear
6:55 AM 31.1 °F 22.4 °F 26.2 °F 82% 29.99 in 10.0 mi SW 10.4 mph - N/A   Clear
7:15 AM 30.4 °F 22.2 °F 26.6 °F 86% 29.98 in 10.0 mi SSW 9.2 mph - N/A   Clear
7:35 AM 30.7 °F 22.0 °F 27.5 °F 88% 29.98 in 10.0 mi SSW 10.4 mph - N/A   Clear
7:55 AM 31.3 °F 22.1 °F 28.0 °F 88% 29.98 in 10.0 mi SSW 11.5 mph - N/A   Clear
8:15 AM 32.2 °F 21.8 °F 27.9 °F 84% 29.98 in 10.0 mi SW 15.0 mph 20.7 mph N/A   Clear
8:35 AM 33.3 °F 23.2 °F 28.2 °F 82% 29.98 in 10.0 mi SW 15.0 mph - N/A   Clear
8:55 AM 34.5 °F 24.8 °F 27.3 °F 75% 29.97 in 10.0 mi WSW 15.0 mph 21.9 mph N/A   Clear
9:15 AM 35.8 °F 26.1 °F 25.7 °F 67% 29.97 in 10.0 mi WSW 16.1 mph 20.7 mph N/A   Clear
9:35 AM 37.6 °F 27.7 °F 24.3 °F 59% 29.96 in 10.0 mi WSW 18.4 mph 25.3 mph N/A   Clear
9:55 AM 38.8 °F 29.7 °F 23.9 °F 55% 29.97 in 10.0 mi WSW 17.3 mph 28.8 mph N/A   Clear
10:15 AM 40.3 °F 30.4 °F 24.8 °F 54% 29.96 in 10.0 mi WSW 21.9 mph 28.8 mph N/A   Clear
10:35 AM 41.0 °F 31.1 °F 24.3 °F 51% 29.95 in 10.0 mi WSW 23.0 mph 29.9 mph N/A   Clear
10:55 AM 42.6 °F 34.3 °F 23.7 °F 47% 29.95 in 10.0 mi WSW 18.4 mph 33.4 mph N/A   Clear
11:15 AM 43.5 °F 35.0 °F 23.2 °F 45% 29.94 in 10.0 mi WSW 20.7 mph 32.2 mph N/A   Clear
11:35 AM 44.8 °F 38.0 °F 24.4 °F 45% 29.93 in 10.0 mi WSW 15.0 mph 34.5 mph N/A   Clear
11:55 AM 45.7 °F 38.8 °F 23.9 °F 42% 29.92 in 10.0 mi WSW 16.1 mph 28.8 mph N/A   Clear
12:15 PM 47.1 °F - 24.6 °F 41% 29.91 in 10.0 mi WSW 23.0 mph 28.8 mph N/A   Clear
12:35 PM 48.2 °F - 25.5 °F 41% 29.90 in 10.0 mi WSW 18.4 mph 32.2 mph N/A   Clear
12:55 PM 49.5 °F - 26.4 °F 41% 29.88 in 10.0 mi WSW 26.5 mph 34.5 mph N/A   Clear
1:15 PM 48.9 °F - 25.5 °F 40% 29.85 in 10.0 mi WSW 20.7 mph 33.4 mph N/A   Clear
1:35 PM 50.2 °F - 26.2 °F 39% 29.84 in 10.0 mi WSW 19.6 mph 41.4 mph N/A   Clear
1:55 PM 50.2 °F - 27.0 °F 41% 29.82 in 10.0 mi SW 20.7 mph 31.1 mph N/A   Clear
2:15 PM 51.6 °F - 26.4 °F 38% 29.82 in 10.0 mi SW 26.5 mph 36.8 mph N/A   Clear
2:35 PM 53.1 °F - 27.0 °F 37% 29.81 in 10.0 mi SW 24.2 mph 35.7 mph N/A   Clear
2:55 PM 53.4 °F - 27.1 °F 36% 29.80 in 10.0 mi SW 23.0 mph 36.8 mph N/A   Clear
3:35 PM 53.6 °F - 26.2 °F 35% 29.79 in 10.0 mi SW 26.5 mph 38.0 mph N/A   Clear
3:55 PM 53.8 °F - 26.1 °F 34% 29.79 in 10.0 mi WSW 27.6 mph 39.1 mph N/A   Scattered Clouds
4:15 PM 53.6 °F - 26.4 °F 35% 29.79 in 10.0 mi SW 28.8 mph 38.0 mph N/A   Clear
4:35 PM 53.6 °F - 27.3 °F 36% 29.78 in 10.0 mi WSW 16.1 mph 27.6 mph N/A   Scattered Clouds
4:55 PM 52.7 °F - 25.9 °F 35% 29.79 in 10.0 mi WSW 16.1 mph 25.3 mph N/A   Mostly Cloudy
5:15 PM 52.7 °F - 26.6 °F 36% 29.79 in 10.0 mi WSW 15.0 mph 23.0 mph N/A   Scattered Clouds
5:35 PM 52.5 °F - 27.0 °F 37% 29.79 in 10.0 mi WSW 12.7 mph 18.4 mph N/A   Scattered Clouds
5:55 PM 51.8 °F - 27.5 °F 39% 29.79 in 10.0 mi West 10.4 mph 19.6 mph N/A   Scattered Clouds
6:15 PM 50.5 °F - 27.7 °F 41% 29.79 in 10.0 mi West 8.1 mph - N/A   Clear
6:35 PM 43.3 °F 36.1 °F 30.9 °F 62% 29.82 in 10.0 mi NNW 15.0 mph 21.9 mph N/A   Clear
6:55 PM 41.4 °F 33.6 °F 31.1 °F 67% 29.82 in 10.0 mi NNW 15.0 mph 20.7 mph N/A   Clear
7:15 PM 40.6 °F 35.4 °F 31.3 °F 69% 29.83 in 10.0 mi NNW 8.1 mph - N/A   Clear
7:35 PM 40.3 °F 34.9 °F 31.6 °F 71% 29.83 in 10.0 mi NNW 8.1 mph - N/A   Clear
7:55 PM 39.9 °F 35.1 °F 32.0 °F 73% 29.84 in 10.0 mi NW 6.9 mph - N/A   Clear
8:15 PM 39.7 °F 37.6 °F 32.0 °F 74% 29.84 in 10.0 mi NW 3.5 mph - N/A   Clear
8:35 PM 39.6 °F 34.7 °F 32.0 °F 74% 29.84 in 10.0 mi NNW 6.9 mph - N/A   Clear
8:55 PM 39.6 °F 35.4 °F 31.8 °F 74% 29.84 in 10.0 mi NW 5.8 mph - N/A   Clear
9:15 PM 39.4 °F 34.5 °F 32.0 °F 75% 29.84 in 10.0 mi NW 6.9 mph - N/A   Clear
9:35 PM 39.2 °F 35.0 °F 32.0 °F 75% 29.84 in 10.0 mi NW 5.8 mph - N/A   Clear
9:55 PM 39.2 °F 35.0 °F 32.0 °F 75% 29.84 in 10.0 mi NW 5.8 mph - N/A   Clear
10:15 PM 39.2 °F 35.9 °F 32.0 °F 75% 29.85 in 10.0 mi WNW 4.6 mph - N/A   Clear
10:35 PM 38.8 °F - 32.0 °F 76% 29.85 in 10.0 mi Calm Calm - N/A   Clear
10:55 PM 37.8 °F - 33.8 °F 86% 29.85 in 10.0 mi Calm Calm - N/A   Clear
11:15 PM 37.6 °F 34.0 °F 33.8 °F 86% 29.85 in 10.0 mi SW 4.6 mph - N/A   Clear
11:35 PM 37.6 °F 34.0 °F 33.8 °F 86% 29.85 in 10.0 mi SW 4.6 mph - N/A   Clear
11:55 PM 37.9 °F 34.4 °F 33.3 °F 83% 29.85 in 10.0 mi SW 4.6 mph - N/A   Clear